DAAE

Soummam Airport

Airport
ICAO code
DAAE
IATA Code
BJA
Summary
ICAO Region
AFI
ICAO Territory
Location

, Bejaia

Serving
Bejaja
Elevation
20 ft
Coordinates
36° 42' 43" N , 5° 4' 12" E
Metar
DAAE 041100Z 24008KT 9999 FEW020TCU FEW023CB SCT033 13/10 Q1019

Runways

Designator Length Width Surface Rops
8/26 2400 45 ASP No/No

Airport map

Aerial View

SKYbrary Partners:

Safety knowledge contributed by: